createdAt,value
2022-10-29T00:00:52.933Z,100.00
2022-10-29T00:03:20.966Z,100.00
2022-10-29T00:05:59.510Z,100.00
2022-10-29T00:08:26.788Z,100.00
2022-10-29T00:10:53.626Z,100.00
2022-10-29T00:13:20.461Z,100.00
2022-10-29T00:15:47.413Z,100.00
2022-10-29T00:18:14.249Z,100.00
2022-10-29T00:20:41.064Z,100.00
2022-10-29T00:23:07.850Z,100.00
2022-10-29T00:25:34.652Z,100.00
2022-10-29T00:28:01.426Z,100.00
2022-10-29T00:30:28.196Z,100.00
2022-10-29T00:32:55.309Z,100.00
2022-10-29T00:35:22.513Z,100.00
2022-10-29T00:37:49.671Z,100.00
2022-10-29T00:40:16.515Z,100.00
2022-10-29T00:42:43.221Z,100.00
2022-10-29T00:45:19.716Z,100.00
2022-10-29T00:47:51.030Z,100.00
2022-10-29T00:50:20.216Z,100.00
2022-10-29T00:52:50.197Z,100.00
2022-10-29T00:55:19.533Z,100.00
2022-10-29T00:57:52.358Z,100.00
2022-10-29T01:00:21.342Z,100.00
2022-10-29T01:02:48.415Z,100.00
2022-10-29T01:05:28.147Z,100.00
2022-10-29T01:07:55.122Z,100.00
2022-10-29T01:10:36.271Z,100.00
2022-10-29T01:13:13.699Z,100.00
2022-10-29T01:16:02.200Z,100.00
2022-10-29T01:18:48.530Z,100.00
2022-10-29T01:21:38.653Z,100.00
2022-10-29T01:24:17.583Z,100.00
2022-10-29T01:27:10.720Z,100.00
2022-10-29T01:30:13.052Z,100.00
2022-10-29T01:32:49.924Z,100.00
2022-10-29T01:35:19.310Z,100.00
2022-10-29T01:38:10.156Z,100.00
2022-10-29T01:40:50.806Z,100.00
2022-10-29T01:44:10.179Z,100.00
2022-10-29T01:46:48.604Z,100.00
2022-10-29T01:49:21.849Z,100.00
2022-10-29T01:51:51.191Z,100.00
2022-10-29T01:54:18.025Z,100.00
2022-10-29T01:56:54.008Z,100.00
2022-10-29T01:59:35.353Z,100.00
2022-10-29T02:02:21.279Z,100.00
2022-10-29T02:05:12.788Z,100.00
2022-10-29T02:07:56.825Z,100.00
2022-10-29T02:10:33.964Z,100.00
2022-10-29T02:13:01.000Z,100.00
2022-10-29T02:15:35.485Z,100.00
2022-10-29T02:18:05.447Z,100.00
2022-10-29T02:20:32.532Z,100.00
2022-10-29T02:22:59.485Z,100.00
2022-10-29T02:25:27.551Z,100.00
2022-10-29T02:27:54.704Z,100.00
2022-10-29T02:30:21.610Z,100.00
2022-10-29T02:32:48.426Z,100.00
2022-10-29T02:35:15.230Z,100.00
2022-10-29T02:37:42.182Z,100.00
2022-10-29T02:40:09.587Z,100.00
2022-10-29T02:42:36.601Z,100.00
2022-10-29T02:45:03.770Z,100.00
2022-10-29T02:47:30.542Z,100.00
2022-10-29T02:49:57.267Z,100.00
2022-10-29T02:52:24.141Z,100.00
2022-10-29T02:54:50.869Z,100.00
2022-10-29T02:57:17.702Z,100.00
2022-10-29T02:59:44.586Z,100.00
2022-10-29T03:02:11.483Z,100.00
2022-10-29T03:04:39.538Z,100.00
2022-10-29T03:07:06.473Z,100.00
2022-10-29T03:09:33.325Z,100.00
2022-10-29T03:12:00.075Z,100.00
2022-10-29T03:14:26.829Z,100.00
2022-10-29T03:16:53.569Z,100.00
2022-10-29T03:19:20.307Z,100.00
2022-10-29T03:21:47.095Z,100.00
2022-10-29T03:24:13.874Z,100.00
2022-10-29T03:26:40.694Z,100.00
2022-10-29T03:29:07.519Z,100.00
2022-10-29T03:31:34.346Z,100.00
2022-10-29T03:34:01.201Z,100.00
2022-10-29T03:36:28.004Z,100.00
2022-10-29T03:38:54.728Z,100.00
2022-10-29T03:41:21.463Z,100.00
2022-10-29T03:43:48.369Z,100.00
2022-10-29T03:46:15.248Z,100.00
2022-10-29T03:48:42.094Z,100.00
2022-10-29T03:51:10.057Z,100.00
2022-10-29T03:53:37.597Z,100.00
2022-10-29T03:56:05.018Z,100.00
2022-10-29T03:58:31.827Z,100.00
2022-10-29T04:01:06.825Z,100.00
2022-10-29T04:03:34.999Z,100.00
2022-10-29T04:06:08.493Z,100.00
2022-10-29T04:08:35.329Z,100.00
2022-10-29T04:11:02.112Z,100.00
2022-10-29T04:13:28.847Z,100.00
2022-10-29T04:15:56.439Z,100.00
2022-10-29T04:18:24.514Z,100.00
2022-10-29T04:29:11.792Z,100.00
2022-10-29T04:31:38.605Z,100.00
2022-10-29T04:34:05.635Z,100.00
2022-10-29T04:36:32.356Z,100.00
2022-10-29T04:38:59.156Z,100.00
2022-10-29T04:41:25.992Z,100.00
2022-10-29T04:43:52.816Z,100.00
2022-10-29T04:46:19.641Z,100.00
2022-10-29T04:48:46.465Z,100.00
2022-10-29T04:51:21.169Z,100.00
2022-10-29T04:53:48.349Z,100.00
2022-10-29T04:56:15.254Z,100.00
2022-10-29T04:58:42.048Z,100.00
2022-10-29T05:01:08.966Z,100.00
2022-10-29T05:03:36.338Z,100.00
2022-10-29T05:06:05.171Z,100.00
2022-10-29T05:08:32.222Z,100.00
2022-10-29T05:11:02.291Z,100.00
2022-10-29T05:13:29.332Z,100.00
2022-10-29T05:15:56.137Z,100.00
2022-10-29T05:18:23.224Z,100.00
2022-10-29T05:20:54.182Z,100.00
2022-10-29T05:23:21.328Z,100.00
2022-10-29T05:25:49.310Z,100.00
2022-10-29T05:28:21.342Z,100.00
2022-10-29T05:30:50.412Z,100.00
2022-10-29T05:33:20.616Z,100.00
2022-10-29T05:35:48.230Z,100.00
2022-10-29T05:38:16.364Z,100.00
2022-10-29T05:40:45.205Z,100.00
2022-10-29T05:43:16.821Z,100.00
2022-10-29T05:45:44.061Z,100.00
2022-10-29T05:50:39.903Z,100.00
2022-10-29T05:53:10.111Z,100.00
2022-10-29T05:55:37.165Z,100.00
2022-10-29T05:58:06.782Z,100.00
2022-10-29T06:00:38.846Z,100.00
2022-10-29T06:03:20.155Z,100.00
2022-10-29T06:05:48.082Z,100.00
2022-10-29T06:08:15.383Z,100.00
2022-10-29T06:10:42.239Z,100.00
2022-10-29T06:13:13.773Z,100.00
2022-10-29T06:15:40.852Z,100.00
2022-10-29T06:18:07.778Z,100.00
2022-10-29T06:20:35.003Z,100.00
2022-10-29T06:23:01.863Z,100.00
2022-10-29T06:25:28.957Z,100.00
2022-10-29T06:28:06.269Z,100.00
2022-10-29T06:30:34.714Z,100.00
2022-10-29T06:33:02.604Z,100.00
2022-10-29T06:35:29.666Z,100.00
2022-10-29T06:37:56.839Z,100.00
2022-10-29T06:40:23.813Z,100.00
2022-10-29T06:42:50.662Z,100.00
2022-10-29T06:45:17.473Z,100.00
2022-10-29T06:47:45.678Z,100.00
2022-10-29T06:50:14.222Z,100.00
2022-10-29T06:52:40.961Z,100.00
2022-10-29T06:55:08.479Z,100.00
2022-10-29T06:57:35.547Z,100.00
2022-10-29T07:00:07.272Z,100.00
2022-10-29T07:02:35.797Z,100.00
2022-10-29T07:05:02.606Z,100.00
2022-10-29T07:07:29.849Z,100.00
2022-10-29T07:09:58.242Z,100.00
2022-10-29T07:12:25.040Z,100.00
2022-10-29T07:14:51.837Z,100.00
2022-10-29T07:17:18.662Z,100.00
2022-10-29T07:19:45.430Z,100.00
2022-10-29T07:22:12.229Z,100.00
2022-10-29T07:24:39.076Z,100.00
2022-10-29T07:27:07.355Z,100.00
2022-10-29T07:29:35.264Z,100.00
2022-10-29T07:32:02.050Z,100.00
2022-10-29T07:34:28.785Z,100.00
2022-10-29T07:36:55.506Z,100.00
2022-10-29T07:39:22.816Z,100.00
2022-10-29T07:41:50.239Z,100.00
2022-10-29T07:44:17.623Z,100.00
2022-10-29T07:46:44.334Z,100.00
2022-10-29T07:49:11.547Z,100.00
2022-10-29T07:51:38.476Z,100.00
2022-10-29T07:54:05.241Z,100.00
2022-10-29T07:56:32.105Z,100.00
2022-10-29T07:58:59.121Z,100.00
2022-10-29T08:01:26.201Z,100.00
2022-10-29T08:03:53.089Z,100.00
2022-10-29T08:06:19.862Z,100.00
2022-10-29T08:08:46.850Z,100.00
2022-10-29T08:11:13.695Z,100.00
2022-10-29T08:13:40.440Z,100.00
2022-10-29T08:16:07.682Z,100.00
2022-10-29T08:18:34.920Z,100.00
2022-10-29T08:21:05.867Z,100.00
2022-10-29T08:23:32.676Z,100.00
2022-10-29T08:25:59.501Z,100.00
2022-10-29T08:28:27.610Z,100.00
2022-10-29T08:30:55.274Z,100.00
2022-10-29T08:33:22.096Z,100.00
2022-10-29T08:35:49.144Z,100.00
2022-10-29T08:38:15.992Z,100.00
2022-10-29T08:41:07.183Z,100.00
2022-10-29T08:43:44.563Z,100.00
2022-10-29T08:46:42.198Z,100.00
2022-10-29T08:49:20.977Z,100.00
2022-10-29T08:51:55.442Z,100.00
2022-10-29T08:54:30.727Z,100.00
2022-10-29T08:57:02.130Z,100.00
2022-10-29T08:59:35.709Z,100.00
2022-10-29T09:02:02.664Z,100.00
2022-10-29T09:04:39.191Z,100.00
2022-10-29T09:07:24.778Z,100.00
2022-10-29T09:10:06.616Z,100.00
2022-10-29T09:12:44.335Z,100.00
2022-10-29T09:15:41.364Z,100.00
2022-10-29T09:18:29.461Z,100.00
2022-10-29T09:21:08.140Z,100.00
2022-10-29T09:24:10.364Z,100.00
2022-10-29T09:26:37.050Z,100.00
2022-10-29T09:29:34.031Z,100.00
2022-10-29T09:32:16.688Z,100.00
2022-10-29T09:34:49.847Z,100.00
2022-10-29T09:37:33.954Z,100.00
2022-10-29T09:40:06.194Z,100.00
2022-10-29T09:42:38.300Z,100.00
2022-10-29T09:45:10.975Z,100.00
2022-10-29T09:47:56.064Z,100.00
2022-10-29T09:50:36.145Z,100.00
2022-10-29T09:53:03.335Z,100.00
2022-10-29T09:55:39.822Z,100.00
2022-10-29T09:58:07.260Z,100.00
2022-10-29T10:00:35.158Z,100.00
2022-10-29T10:03:02.205Z,100.00
2022-10-29T10:05:32.129Z,100.00
2022-10-29T10:08:14.913Z,100.00
2022-10-29T10:10:53.833Z,99.11
2022-10-29T10:13:26.982Z,99.58
2022-10-29T10:16:00.041Z,99.10
2022-10-29T10:18:33.809Z,99.23
2022-10-29T10:21:02.791Z,99.01
2022-10-29T10:23:43.019Z,99.06
2022-10-29T10:26:45.414Z,98.64
2022-10-29T10:29:16.734Z,98.42
2022-10-29T10:31:56.019Z,97.47
2022-10-29T10:34:34.951Z,96.74
2022-10-29T10:37:10.783Z,96.79
2022-10-29T10:39:38.952Z,96.48
2022-10-29T10:42:22.651Z,96.59
2022-10-29T10:44:54.444Z,95.44
2022-10-29T10:47:27.412Z,94.77
2022-10-29T10:49:54.648Z,94.90
2022-10-29T10:52:28.767Z,94.13
2022-10-29T10:54:58.087Z,93.46
2022-10-29T10:57:29.803Z,93.54
2022-10-29T11:00:06.437Z,93.88
2022-10-29T11:02:45.399Z,93.41
2022-10-29T11:05:17.648Z,92.35
2022-10-29T11:07:52.752Z,93.79
2022-10-29T11:10:24.345Z,94.15
2022-10-29T11:12:55.550Z,93.78
2022-10-29T11:15:38.365Z,93.18
2022-10-29T11:18:19.620Z,92.54
2022-10-29T11:20:52.781Z,92.11
2022-10-29T11:23:25.635Z,91.67
2022-10-29T11:26:31.589Z,91.83
2022-10-29T11:29:23.311Z,91.47
2022-10-29T11:32:00.121Z,91.35
2022-10-29T11:34:39.346Z,90.71
2022-10-29T11:37:27.874Z,90.99
2022-10-29T11:40:12.602Z,91.54
2022-10-29T11:42:41.004Z,91.78
2022-10-29T11:45:13.717Z,91.72
2022-10-29T11:48:03.415Z,92.08
2022-10-29T11:50:44.091Z,91.74
2022-10-29T11:53:32.652Z,92.47
2022-10-29T11:56:22.612Z,91.77
2022-10-29T11:58:58.143Z,91.78
2022-10-29T12:01:36.782Z,91.76
2022-10-29T12:04:23.132Z,91.60
2022-10-29T12:07:02.308Z,91.85
2022-10-29T12:09:47.739Z,92.06
2022-10-29T12:12:36.746Z,91.61
2022-10-29T12:15:09.634Z,91.37
2022-10-29T12:17:58.435Z,91.53
2022-10-29T12:20:48.653Z,91.17
2022-10-29T12:23:49.727Z,91.33
2022-10-29T12:26:42.685Z,91.08
2022-10-29T12:29:46.811Z,90.91
2022-10-29T12:32:25.536Z,91.81
2022-10-29T12:35:03.174Z,91.77
2022-10-29T12:38:18.207Z,91.77
2022-10-29T12:40:48.566Z,91.56
2022-10-29T12:43:25.510Z,91.42
2022-10-29T12:46:26.047Z,91.17
2022-10-29T12:49:40.448Z,91.05
2022-10-29T12:52:18.941Z,92.34
2022-10-29T12:54:49.677Z,92.31
2022-10-29T12:57:16.399Z,92.47
2022-10-29T12:59:44.288Z,92.08
2022-10-29T13:02:38.929Z,92.33
2022-10-29T13:05:11.670Z,92.07
2022-10-29T13:07:47.562Z,92.06
2022-10-29T13:10:30.867Z,92.36
2022-10-29T13:13:20.294Z,92.33
2022-10-29T13:16:00.846Z,91.78
2022-10-29T13:18:40.419Z,91.88
2022-10-29T13:21:08.671Z,91.57
2022-10-29T13:23:37.659Z,91.87
2022-10-29T13:26:08.796Z,91.56
2022-10-29T13:28:35.722Z,91.35
2022-10-29T13:31:05.195Z,91.00
2022-10-29T13:33:31.883Z,91.16
2022-10-29T13:36:02.937Z,91.06
2022-10-29T13:39:05.923Z,91.26
2022-10-29T13:41:54.140Z,91.50
2022-10-29T13:44:24.268Z,92.01
2022-10-29T13:47:02.687Z,92.13
2022-10-29T13:49:38.532Z,92.46
2022-10-29T13:52:19.736Z,92.64
2022-10-29T13:55:20.648Z,92.69
2022-10-29T13:58:15.301Z,92.69
2022-10-29T14:00:47.734Z,92.56
2022-10-29T14:03:26.379Z,92.47
2022-10-29T14:06:06.593Z,92.65
2022-10-29T14:09:18.418Z,92.72
2022-10-29T14:11:55.079Z,93.22
2022-10-29T14:14:35.173Z,93.66
2022-10-29T14:17:12.511Z,93.99
2022-10-29T14:19:44.645Z,93.99
2022-10-29T14:22:37.708Z,93.90
2022-10-29T14:25:24.448Z,94.18
2022-10-29T14:28:13.114Z,94.28
2022-10-29T14:30:39.976Z,94.54
2022-10-29T14:33:22.823Z,94.91
2022-10-29T14:35:49.983Z,95.22
2022-10-29T14:38:18.020Z,95.10
2022-10-29T14:40:46.582Z,94.97
2022-10-29T14:43:26.401Z,95.16
2022-10-29T14:45:56.130Z,95.45
2022-10-29T14:48:23.540Z,95.38
2022-10-29T14:50:51.515Z,95.29
2022-10-29T14:53:34.635Z,95.39
2022-10-29T14:56:09.863Z,95.62
2022-10-29T14:58:38.134Z,95.96
2022-10-29T15:01:14.519Z,96.04
2022-10-29T15:03:41.969Z,96.12
2022-10-29T15:06:20.347Z,96.16
2022-10-29T15:09:00.820Z,97.00
2022-10-29T15:11:38.373Z,97.25
2022-10-29T15:14:33.010Z,97.25
2022-10-29T15:17:01.282Z,97.34
2022-10-29T15:19:28.802Z,97.31
2022-10-29T15:21:55.632Z,97.45
2022-10-29T15:24:24.388Z,97.29
2022-10-29T15:27:02.693Z,97.40
2022-10-29T15:29:42.770Z,97.44
2022-10-29T15:32:16.065Z,97.49
2022-10-29T15:35:00.998Z,97.82
2022-10-29T15:37:30.841Z,97.67
2022-10-29T15:39:57.488Z,98.00
2022-10-29T15:42:27.749Z,98.04
2022-10-29T15:47:45.174Z,97.82
2022-10-29T15:50:21.550Z,97.86
2022-10-29T15:53:01.792Z,97.85
2022-10-29T15:55:32.115Z,98.22
2022-10-29T15:58:04.298Z,98.24
2022-10-29T16:00:32.232Z,98.15
2022-10-29T16:03:13.922Z,98.10
2022-10-29T16:05:42.897Z,98.28
2022-10-29T16:08:26.715Z,98.46
2022-10-29T16:10:54.841Z,98.72
2022-10-29T16:13:22.617Z,98.81
2022-10-29T16:15:49.362Z,98.69
2022-10-29T16:18:16.247Z,98.97
2022-10-29T16:20:43.506Z,99.25
2022-10-29T16:23:11.456Z,99.19
2022-10-29T16:25:39.084Z,99.60
2022-10-29T16:28:06.300Z,99.56
2022-10-29T16:30:34.368Z,99.59
2022-10-29T16:33:02.165Z,99.54
2022-10-29T16:35:30.446Z,99.75
2022-10-29T16:37:58.075Z,99.74
2022-10-29T16:40:27.665Z,99.83
2022-10-29T16:42:55.341Z,99.79
2022-10-29T16:45:25.367Z,99.66
2022-10-29T16:47:52.932Z,99.89
2022-10-29T16:50:25.694Z,99.98
2022-10-29T16:53:00.632Z,99.74
2022-10-29T16:55:29.183Z,99.89
2022-10-29T16:57:57.331Z,100.00
2022-10-29T17:00:26.262Z,100.00
2022-10-29T17:02:53.406Z,100.00
2022-10-29T17:05:20.210Z,100.00
2022-10-29T17:07:47.477Z,100.00
2022-10-29T17:10:14.690Z,100.00
2022-10-29T17:12:41.879Z,100.00
2022-10-29T17:15:09.542Z,100.00
2022-10-29T17:17:37.536Z,100.00
2022-10-29T17:20:06.490Z,100.00
2022-10-29T17:22:33.929Z,100.00
2022-10-29T17:25:04.057Z,100.00
2022-10-29T17:27:31.609Z,100.00
2022-10-29T17:29:59.112Z,100.00
2022-10-29T17:32:26.435Z,100.00
2022-10-29T17:34:53.685Z,100.00
2022-10-29T17:37:21.187Z,100.00
2022-10-29T17:39:48.597Z,100.00
2022-10-29T17:42:15.871Z,100.00
2022-10-29T17:44:43.090Z,100.00
2022-10-29T17:47:12.184Z,100.00
2022-10-29T17:49:39.605Z,100.00
2022-10-29T17:52:06.959Z,100.00
2022-10-29T17:54:35.394Z,100.00
2022-10-29T17:57:02.931Z,100.00
2022-10-29T17:59:30.337Z,100.00
2022-10-29T18:01:57.678Z,100.00
2022-10-29T18:04:25.069Z,100.00
2022-10-29T18:06:52.772Z,100.00
2022-10-29T18:09:21.265Z,100.00
2022-10-29T18:11:50.424Z,100.00
2022-10-29T18:14:18.223Z,100.00
2022-10-29T18:16:46.477Z,100.00
2022-10-29T18:19:14.182Z,100.00
2022-10-29T18:21:41.512Z,100.00
2022-10-29T18:24:09.481Z,100.00
2022-10-29T18:26:37.852Z,100.00
2022-10-29T18:29:08.502Z,100.00
2022-10-29T18:31:37.664Z,100.00
2022-10-29T18:34:08.034Z,100.00
2022-10-29T18:36:36.126Z,100.00
2022-10-29T18:39:06.170Z,100.00
2022-10-29T18:41:35.509Z,100.00
2022-10-29T18:44:03.374Z,100.00
2022-10-29T18:46:32.166Z,100.00
2022-10-29T18:49:00.499Z,100.00
2022-10-29T18:51:35.118Z,100.00
2022-10-29T18:54:02.947Z,100.00
2022-10-29T18:56:30.942Z,100.00
2022-10-29T18:58:59.556Z,100.00
2022-10-29T19:01:33.101Z,100.00
2022-10-29T19:04:03.750Z,100.00
2022-10-29T19:06:33.438Z,100.00
2022-10-29T19:09:04.312Z,100.00
2022-10-29T19:11:32.053Z,100.00
2022-10-29T19:14:01.804Z,100.00
2022-10-29T19:16:31.395Z,100.00
2022-10-29T19:19:01.453Z,100.00
2022-10-29T19:21:29.418Z,100.00
2022-10-29T19:23:59.864Z,100.00
2022-10-29T19:26:30.139Z,100.00
2022-10-29T19:29:02.287Z,100.00
2022-10-29T19:31:31.498Z,100.00
2022-10-29T19:34:04.329Z,100.00
2022-10-29T19:36:32.588Z,100.00
2022-10-29T19:39:00.616Z,100.00
2022-10-29T19:41:29.468Z,100.00
2022-10-29T19:44:04.248Z,100.00
2022-10-29T19:46:31.760Z,100.00
2022-10-29T19:48:59.407Z,100.00
2022-10-29T19:51:27.400Z,100.00
2022-10-29T19:53:57.428Z,100.00
2022-10-29T19:56:24.831Z,100.00
2022-10-29T19:58:52.502Z,100.00
2022-10-29T20:01:20.084Z,100.00
2022-10-29T20:03:47.730Z,100.00
2022-10-29T20:06:18.026Z,100.00
2022-10-29T20:08:46.340Z,100.00
2022-10-29T20:11:14.102Z,100.00
2022-10-29T20:13:41.634Z,100.00
2022-10-29T20:16:12.631Z,100.00
2022-10-29T20:18:40.313Z,100.00
2022-10-29T20:21:08.477Z,100.00
2022-10-29T20:23:36.102Z,100.00
2022-10-29T20:26:06.783Z,100.00
2022-10-29T20:28:35.190Z,100.00
2022-10-29T20:31:17.914Z,100.00
2022-10-29T20:33:56.732Z,100.00
2022-10-29T20:36:24.885Z,100.00
2022-10-29T20:38:53.414Z,100.00
2022-10-29T20:41:22.009Z,100.00
2022-10-29T20:43:54.147Z,100.00
2022-10-29T20:46:22.466Z,100.00
2022-10-29T20:48:49.468Z,100.00
2022-10-29T20:51:19.583Z,100.00
2022-10-29T20:53:46.458Z,100.00
2022-10-29T20:56:16.152Z,100.00
2022-10-29T20:58:43.871Z,100.00
2022-10-29T21:01:13.965Z,100.00
2022-10-29T21:03:41.566Z,100.00
2022-10-29T21:06:15.796Z,100.00
2022-10-29T21:08:44.971Z,100.00
2022-10-29T21:11:14.629Z,100.00
2022-10-29T21:13:41.969Z,100.00
2022-10-29T21:16:27.444Z,100.00
2022-10-29T21:19:01.815Z,100.00
2022-10-29T21:21:30.107Z,100.00
2022-10-29T21:23:57.311Z,100.00
2022-10-29T21:26:26.250Z,100.00
2022-10-29T21:28:54.030Z,100.00
2022-10-29T21:31:21.757Z,100.00
2022-10-29T21:33:52.780Z,100.00
2022-10-29T21:36:20.259Z,100.00
2022-10-29T21:38:48.094Z,100.00
2022-10-29T21:41:15.323Z,100.00
2022-10-29T21:43:42.132Z,100.00
2022-10-29T21:46:09.010Z,100.00
2022-10-29T21:48:36.130Z,100.00
2022-10-29T21:51:14.124Z,100.00
2022-10-29T21:53:40.930Z,100.00
2022-10-29T21:56:10.214Z,100.00
2022-10-29T21:58:36.984Z,100.00
2022-10-29T22:01:03.980Z,100.00
2022-10-29T22:03:35.054Z,100.00
2022-10-29T22:06:06.740Z,100.00
2022-10-29T22:08:34.334Z,100.00
2022-10-29T22:11:01.609Z,100.00
2022-10-29T22:13:29.708Z,100.00
2022-10-29T22:15:56.692Z,100.00
2022-10-29T22:18:24.708Z,100.00
2022-10-29T22:21:04.494Z,100.00
2022-10-29T22:23:31.376Z,100.00
2022-10-29T22:25:58.118Z,100.00
2022-10-29T22:28:25.035Z,100.00
2022-10-29T22:31:00.317Z,100.00
2022-10-29T22:33:27.801Z,100.00
2022-10-29T22:35:55.181Z,100.00
2022-10-29T22:38:22.326Z,100.00
2022-10-29T22:40:49.113Z,100.00
2022-10-29T22:43:16.200Z,100.00
2022-10-29T22:45:45.261Z,100.00
2022-10-29T22:48:12.432Z,100.00
2022-10-29T22:50:39.346Z,100.00
2022-10-29T22:53:06.258Z,100.00
2022-10-29T22:55:33.046Z,100.00
2022-10-29T22:58:00.908Z,100.00
2022-10-29T23:00:27.761Z,100.00
2022-10-29T23:02:55.050Z,100.00
2022-10-29T23:05:22.059Z,100.00
2022-10-29T23:07:48.800Z,100.00
2022-10-29T23:10:15.652Z,100.00
2022-10-29T23:12:42.408Z,100.00
2022-10-29T23:15:09.474Z,100.00
2022-10-29T23:17:36.278Z,100.00
2022-10-29T23:20:03.449Z,100.00
2022-10-29T23:22:30.258Z,100.00
2022-10-29T23:24:57.009Z,100.00
2022-10-29T23:27:23.918Z,100.00
2022-10-29T23:29:50.735Z,100.00
2022-10-29T23:32:17.552Z,100.00
2022-10-29T23:34:44.348Z,100.00
2022-10-29T23:37:11.161Z,100.00
2022-10-29T23:39:37.894Z,100.00
2022-10-29T23:42:06.071Z,100.00
2022-10-29T23:44:32.761Z,100.00
2022-10-29T23:46:59.569Z,100.00
2022-10-29T23:49:26.340Z,100.00
2022-10-29T23:51:53.206Z,100.00
2022-10-29T23:54:19.973Z,100.00
2022-10-29T23:56:46.746Z,100.00
2022-10-29T23:59:13.495Z,100.00
